EHKV

K14-fa-1c Sea

K14-fa-1c Sea, The Netherlands
METAR EHKV 200025Z AUTO 26021KT 9999 FEW012 SCT016 BKN020 18/16 Q1013 W///H///
Observed Flight Rules
Sep-20 @ 00:25 UTC (22 minutes ago) Marginal Visual Flight Rules
Wind Visibility Clouds
260° at 21 knots 10,000+ meters
  • Few at 1,200' AGL
  • Scattered at 1,600' AGL
  • Broken at 2,000' AGL
Temperatures Readings
Current 18°C / 64°F
Dewpoint 16°C / 61°F
Humidity 88%
Altimeter 29.91" Hg
Pressure 1013 hPa
Elevation 50
METAR EHKV 200025Z AUTO 26021KT 9999 FEW012 SCT016 BKN020 18/16 Q1013 W///H///
Observed Flight Rules
Sep-20 @ 00:25 UTC
(22 minutes ago)
MVFR
Wind Visibility
260° at 21 knots 10,000+ meters
Clouds
  • Few at 1,200' AGL
  • Scattered at 1,600' AGL
  • Broken at 2,000' AGL
Temperature Dewpoint
18°C / 64°F 16°C / 61°F
Humidity Altimeter Pressure
88% 29.91" Hg 1013 hPa